Kuusamo, Finland

9:15 AM EEST on August 23, 2014 (GMT +0300)
Kuusamo | Change Station
CLOSE
Current Station
Airport
Location: Kuusamo,
Elevation: 863 ft
Nearby Weather Stations

Elev 863 ft 65.99 °N, 29.24 °E | Updated 55 minutes ago

Overcast
Overcast
52 °F
Feels Like 52 °F
N
1
Wind Variable Wind from SSW

Today
High -- | Low -- °F
--% Chance of Precip.
Yesterday
High -- | Low -- °F
Precip. -- in
5:07 AM 9:01 PM
Waning Crescent, 5% visible
Pressure 29.65 in
Visibility 6.2 miles
Clouds Overcast 300 ft
Dew Point 50 °F
Humidity 94%
Rainfall 0.00 in
Snow Depth Not available.
UV 0 out of 12
Pollen Not available.
Air Quality Not available.
Flu Activity Not available.
METAR EFKS 230520Z AUTO 20001KT 9999 OVC003 11/10 Q1004

More Conditions Fewer Conditions

Pressure 29.65 in
Visibility 6.2 miles
Clouds Overcast 300 ft
Dew Point 50 °F
Humidity 94%
Rainfall 0.00 in
Snow Depth Not available.
UV 0 out of 12
Pollen Not available.
Air Quality Not available.
Flu Activity Not available.
METAR EFKS 230520Z AUTO 20001KT 9999 OVC003 11/10 Q1004

More Conditions Fewer Conditions

10-Day Weather Forecast

Almanac

Astronomy

Aug. 23, 2014 Rise Set
Actual Time 5:07 AM EEST 9:01 PM EEST
Civil Twilight 4:02 AM EEST 10:06 PM EEST
Nautical Twilight 1:52 AM EEST 12:06 AM EEST
Astronomical Twilight Sun does not rise Sun does not rise
Moon 2:42 AM EEST 7:44 PM EEST
Length of Visible Light 18h 04m
Length of Day
15h 53m
Tomorrow will be 7m 17s shorter.
Waning Crescent, 5% of the Moon is Illuminated
Today
Waning Crescent
Aug 25
New
Sep 2
First Quarter
Sep 8
Full
Sep 15
Last Quarter

Yesterday's Extremes

Country Highs Country Lows

Community

WunderPhotos

Upload Photos

1,746,371 photos uploaded!

WunderBlogs® & News

By Dr. Jeff Masters
Director of Meteorology, Weather Underground
By Kari Strenfel
Meteorologist, Weather Underground
By Christopher C. Burt
Weather Historian, Weather Underground
August 23, 2014
August 23, 2014
August 22, 2014

Nearby

Snow Depth

Not available.

Earthquake Activity

City Distance Mag. Time & Date
No recent earthquake activity has been reported nearby.
Minimum magnitude displayed is 2.5.

Coastal Water Temperatures

Place Temperature
No Stations Reporting

Nearby Weather Stations